Time;durP1;ratioP1;P1;durP2;ratioP2;P2;SDS_P1;SDS_P2;PMS_P1;PMS_P2;Temp;Humidity;BMP_temperature;BMP_pressure;BME280_temperature;BME280_humidity;BME280_pressure;Samples;Min_cycle;Max_cycle;Signal;HPM_P1;HPM_P2
2023/11/14 06:12:39;;;;;;;30.33;28.73;;;;;;;;;;5045186;28;20032;-62
2023/11/14 06:15:09;;;;;;;33.55;31.67;;;;;;;;;;5057209;28;20726;-62
2023/11/14 06:17:35;;;;;;;30.48;28.88;;;;;;;;;;5060000;28;20089;-63
2023/11/14 06:20:05;;;;;;;33.20;30.63;;;;;;;;;;5057607;28;20045;-65
2023/11/14 06:22:31;;;;;;;32.33;29.30;;;;;;;;;;5058715;28;20032;-64
2023/11/14 06:24:56;;;;;;;29.15;27.25;;;;;;;;;;5061545;28;20786;-61
2023/11/14 06:27:22;;;;;;;32.08;30.38;;;;;;;;;;5056707;28;20025;-63
2023/11/14 06:29:47;;;;;;;30.77;28.88;;;;;;;;;;5057829;28;20064;-64
2023/11/14 06:32:13;;;;;;;31.50;29.13;;;;;;;;;;5061871;28;20067;-63
2023/11/14 06:34:39;;;;;;;36.13;34.22;;;;;;;;;;5056573;28;20124;-64
2023/11/14 06:40:26;;;;;;;33.15;31.13;;;;;;;;;;5047434;28;20060;-64
2023/11/14 06:42:51;;;;;;;33.80;32.03;;;;;;;;;;5057615;28;20414;-62
2023/11/14 06:45:17;;;;;;;35.13;33.35;;;;;;;;;;5056055;28;20213;-65
2023/11/14 06:51:52;;;;;;;32.65;30.75;;;;;;;;;;5052297;28;20040;-61
2023/11/14 06:54:17;;;;;;;32.30;30.60;;;;;;;;;;5056145;28;20025;-64
2023/11/14 06:56:43;;;;;;;32.38;30.67;;;;;;;;;;5052575;28;20375;-61
2023/11/14 06:59:09;;;;;;;34.55;32.75;;;;;;;;;;5057291;28;20449;-65
2023/11/14 07:01:36;;;;;;;35.78;33.65;;;;;;;;;;5057551;28;20044;-64
2023/11/14 07:04:02;;;;;;;35.20;33.30;;;;;;;;;;5059426;28;20516;-64
2023/11/14 07:06:28;;;;;;;36.10;34.20;;;;;;;;;;5040946;28;20057;-64
2023/11/14 07:08:54;;;;;;;36.80;34.40;;;;;;;;;;5055399;28;20063;-60
2023/11/14 07:11:21;;;;;;;35.80;33.90;;;;;;;;;;5059910;28;20037;-62
2023/11/14 07:13:47;;;;;;;35.05;33.10;;;;;;;;;;5060023;28;20028;-60
2023/11/14 07:16:13;;;;;;;33.95;32.13;;;;;;;;;;5062901;28;20323;-60
2023/11/14 07:18:39;;;;;;;33.90;31.58;;;;;;;;;;5058185;28;20070;-63
2023/11/14 07:21:05;;;;;;;33.13;31.42;;;;;;;;;;5062018;28;20123;-64
2023/11/14 07:23:30;;;;;;;32.80;31.10;;;;;;;;;;5057520;28;20163;-60
2023/11/14 07:25:56;;;;;;;33.70;31.60;;;;;;;;;;5061602;28;20059;-59
2023/11/14 07:28:21;;;;;;;32.22;30.52;;;;;;;;;;5060423;28;20362;-61
2023/11/14 07:30:48;;;;;;;35.17;33.17;;;;;;;;;;5057578;28;20573;-63
2023/11/14 07:33:17;;;;;;;33.28;31.48;;;;;;;;;;5060723;28;20050;-60
2023/11/14 07:35:43;;;;;;;34.13;32.30;;;;;;;;;;5064675;28;20044;-60
2023/11/14 07:38:09;;;;;;;31.27;29.50;;;;;;;;;;5063862;28;20539;-60
2023/11/14 07:44:06;;;;;;;27.77;26.27;;;;;;;;;;5060787;28;20029;-64
2023/11/14 07:46:32;;;;;;;30.13;28.17;;;;;;;;;;5057475;28;20584;-64
2023/11/14 07:48:58;;;;;;;31.67;29.98;;;;;;;;;;5062049;28;20029;-64
2023/11/14 07:51:24;;;;;;;29.48;27.95;;;;;;;;;;5059936;28;20025;-64
2023/11/14 07:53:52;;;;;;;33.38;31.23;;;;;;;;;;5059454;28;20430;-64
2023/11/14 07:56:18;;;;;;;33.53;31.77;;;;;;;;;;5059371;28;20035;-64
2023/11/14 07:58:43;;;;;;;33.20;31.38;;;;;;;;;;5054665;28;20041;-64
2023/11/14 08:01:09;;;;;;;31.80;30.08;;;;;;;;;;5070355;28;20044;-64
2023/11/14 08:03:34;;;;;;;31.73;30.02;;;;;;;;;;5059698;28;20037;-64
2023/11/14 08:06:00;;;;;;;32.58;30.77;;;;;;;;;;5066652;28;20075;-64
2023/11/14 08:08:26;;;;;;;31.75;29.95;;;;;;;;;;5056842;28;20396;-64
2023/11/14 08:10:52;;;;;;;32.33;30.52;;;;;;;;;;5058386;28;20032;-64
2023/11/14 08:13:17;;;;;;;32.20;30.30;;;;;;;;;;5056084;28;20052;-65
2023/11/14 08:15:43;;;;;;;29.98;28.02;;;;;;;;;;5058720;28;21156;-65
2023/11/14 08:18:08;;;;;;;30.35;28.33;;;;;;;;;;5064273;28;20457;-64
2023/11/14 08:20:34;;;;;;;27.65;26.20;;;;;;;;;;5060923;28;20103;-64
2023/11/14 08:22:59;;;;;;;28.60;26.85;;;;;;;;;;5062233;28;20048;-64
2023/11/14 08:25:25;;;;;;;30.13;28.42;;;;;;;;;;5060917;28;20028;-63
2023/11/14 08:27:51;;;;;;;28.45;26.60;;;;;;;;;;5061061;28;20433;-64
2023/11/14 08:30:16;;;;;;;27.75;26.08;;;;;;;;;;5061672;28;20081;-63
2023/11/14 08:32:47;;;;;;;29.13;27.52;;;;;;;;;;5058504;28;20519;-63
2023/11/14 08:35:13;;;;;;;28.90;27.30;;;;;;;;;;5057800;28;20094;-63
2023/11/14 08:37:39;;;;;;;29.83;28.23;;;;;;;;;;5060746;28;20513;-65
2023/11/14 08:40:05;;;;;;;28.00;26.50;;;;;;;;;;5061847;28;20037;-60
2023/11/14 08:42:31;;;;;;;29.30;27.67;;;;;;;;;;5059097;28;20032;-65
2023/11/14 08:44:56;;;;;;;31.23;28.75;;;;;;;;;;5058911;28;20415;-65
2023/11/14 08:47:22;;;;;;;27.38;25.77;;;;;;;;;;5058128;28;20040;-61
2023/11/14 08:49:49;;;;;;;27.67;26.17;;;;;;;;;;5063091;28;20039;-64
2023/11/14 08:52:14;;;;;;;28.58;26.95;;;;;;;;;;5062430;28;20047;-64
2023/11/14 08:54:40;;;;;;;29.63;28.02;;;;;;;;;;5059594;28;20020;-64
2023/11/14 08:57:05;;;;;;;27.42;25.70;;;;;;;;;;5060564;28;20451;-61
2023/11/14 08:59:31;;;;;;;28.15;26.55;;;;;;;;;;5056879;28;20033;-61
2023/11/14 09:01:56;;;;;;;28.98;27.10;;;;;;;;;;5066515;28;20037;-64
2023/11/14 09:04:22;;;;;;;28.80;26.88;;;;;;;;;;5061761;28;20035;-61
2023/11/14 09:06:47;;;;;;;28.13;26.52;;;;;;;;;;5059008;28;20032;-61
2023/11/14 09:09:13;;;;;;;27.23;25.83;;;;;;;;;;5062249;28;20033;-61
2023/11/14 09:11:38;;;;;;;28.85;27.13;;;;;;;;;;5058168;28;20419;-61
2023/11/14 09:14:04;;;;;;;30.52;28.73;;;;;;;;;;5062117;28;20060;-61
2023/11/14 09:16:29;;;;;;;29.38;27.77;;;;;;;;;;5060136;28;20028;-61
2023/11/14 09:18:56;;;;;;;30.33;28.63;;;;;;;;;;5059341;28;20036;-65
2023/11/14 09:21:21;;;;;;;31.75;29.50;;;;;;;;;;5062221;28;20047;-64
2023/11/14 09:23:47;;;;;;;31.48;29.73;;;;;;;;;;5060912;28;20305;-64
2023/11/14 09:26:13;;;;;;;31.88;30.17;;;;;;;;;;5063292;28;20024;-61
2023/11/14 09:28:39;;;;;;;30.55;28.60;;;;;;;;;;5061299;28;20107;-64
2023/11/14 09:31:05;;;;;;;29.45;27.67;;;;;;;;;;5059571;28;20028;-64
2023/11/14 09:33:32;;;;;;;29.55;27.70;;;;;;;;;;5059283;28;20035;-65
2023/11/14 09:35:57;;;;;;;28.85;27.25;;;;;;;;;;5066843;28;20031;-65
2023/11/14 09:38:23;;;;;;;30.38;28.67;;;;;;;;;;5061327;28;20481;-61
2023/11/14 09:40:48;;;;;;;29.52;27.90;;;;;;;;;;5061905;28;20077;-61
2023/11/14 09:43:18;;;;;;;28.92;27.40;;;;;;;;;;5060759;28;20036;-61
2023/11/14 09:45:45;;;;;;;28.50;26.90;;;;;;;;;;5055751;28;20355;-62
2023/11/14 09:48:10;;;;;;;28.90;27.23;;;;;;;;;;5058802;28;20040;-63
2023/11/14 09:50:41;;;;;;;29.17;27.58;;;;;;;;;;5047219;28;20366;-63
2023/11/14 09:53:06;;;;;;;27.93;26.43;;;;;;;;;;5062331;28;20040;-63
2023/11/14 09:55:33;;;;;;;28.10;26.60;;;;;;;;;;5054754;28;20288;-62
2023/11/14 09:58:00;;;;;;;31.08;27.77;;;;;;;;;;5060375;28;20540;-62
2023/11/14 10:00:28;;;;;;;28.65;27.15;;;;;;;;;;5074903;28;20044;-59
2023/11/14 10:02:56;;;;;;;30.10;28.38;;;;;;;;;;5058070;28;20039;-64
2023/11/14 10:05:21;;;;;;;29.73;28.08;;;;;;;;;;5058724;28;20055;-64
2023/11/14 10:07:48;;;;;;;27.48;26.05;;;;;;;;;;5062693;28;20029;-63
2023/11/14 10:10:14;;;;;;;29.00;27.40;;;;;;;;;;5058483;28;20436;-63
2023/11/14 10:12:40;;;;;;;29.48;27.88;;;;;;;;;;5057231;28;20032;-64
2023/11/14 10:15:07;;;;;;;29.90;28.10;;;;;;;;;;5057016;28;20060;-61
2023/11/14 10:17:46;;;;;;;28.17;26.73;;;;;;;;;;5059789;28;20123;-64
2023/11/14 10:20:12;;;;;;;28.08;26.58;;;;;;;;;;5057608;28;20028;-60
2023/11/14 10:22:46;;;;;;;28.63;27.02;;;;;;;;;;5052592;28;20040;-65
2023/11/14 10:25:24;;;;;;;29.85;28.15;;;;;;;;;;5060832;28;20055;-60
2023/11/14 10:27:59;;;;;;;30.17;28.48;;;;;;;;;;5057824;28;20059;-66
2023/11/14 10:30:47;;;;;;;29.30;27.70;;;;;;;;;;5061397;28;20040;-65
2023/11/14 10:33:13;;;;;;;30.00;28.15;;;;;;;;;;5060358;28;20036;-60
2023/11/14 10:35:45;;;;;;;28.05;26.55;;;;;;;;;;5059362;28;20040;-60
2023/11/14 10:38:20;;;;;;;27.90;26.42;;;;;;;;;;5057941;28;20044;-65
2023/11/14 10:40:49;;;;;;;28.73;27.23;;;;;;;;;;5059006;28;20037;-60
2023/11/14 10:43:29;;;;;;;32.20;29.85;;;;;;;;;;5059681;28;20594;-60
2023/11/14 10:45:54;;;;;;;28.92;26.70;;;;;;;;;;5062289;28;20040;-65
2023/11/14 10:48:23;;;;;;;28.95;27.45;;;;;;;;;;5065705;28;20071;-64
2023/11/14 10:50:50;;;;;;;28.00;26.50;;;;;;;;;;5067504;28;20373;-60
2023/11/14 10:53:15;;;;;;;27.23;25.83;;;;;;;;;;5062573;28;20032;-60
2023/11/14 10:55:42;;;;;;;29.20;27.55;;;;;;;;;;5061650;28;20028;-60
2023/11/14 10:58:09;;;;;;;27.35;25.95;;;;;;;;;;5030860;28;20032;-60
2023/11/14 11:00:35;;;;;;;29.83;28.15;;;;;;;;;;5062577;28;20411;-64
2023/11/14 11:03:03;;;;;;;28.20;26.40;;;;;;;;;;5065086;28;20107;-60
2023/11/14 11:05:32;;;;;;;28.00;26.40;;;;;;;;;;5062902;28;20111;-64
2023/11/14 11:08:05;;;;;;;28.00;26.50;;;;;;;;;;5061496;28;20027;-64
2023/11/14 11:10:34;;;;;;;28.77;27.02;;;;;;;;;;5065026;28;20112;-59
2023/11/14 11:13:09;;;;;;;30.73;28.77;;;;;;;;;;5065399;28;20036;-60
2023/11/14 11:15:45;;;;;;;30.40;28.70;;;;;;;;;;5064813;28;20032;-59
2023/11/14 11:18:12;;;;;;;30.40;28.60;;;;;;;;;;5062979;28;20036;-64
2023/11/14 11:20:37;;;;;;;29.67;28.08;;;;;;;;;;5061929;28;20055;-62
2023/11/14 11:23:08;;;;;;;29.75;28.17;;;;;;;;;;5062758;28;20040;-59
2023/11/14 11:25:44;;;;;;;28.13;26.63;;;;;;;;;;5064486;28;20040;-59
2023/11/14 11:28:18;;;;;;;27.15;25.73;;;;;;;;;;5063892;28;20378;-59
2023/11/14 11:31:10;;;;;;;28.30;26.80;;;;;;;;;;5062473;28;20116;-59
2023/11/14 11:33:46;;;;;;;26.50;25.10;;;;;;;;;;5062831;28;20471;-59
2023/11/14 11:36:20;;;;;;;27.02;25.50;;;;;;;;;;5066937;28;20058;-63
2023/11/14 11:38:59;;;;;;;28.67;27.10;;;;;;;;;;5062029;28;20047;-63
2023/11/14 11:41:26;;;;;;;29.33;27.73;;;;;;;;;;5063273;28;20359;-63
2023/11/14 11:44:08;;;;;;;27.60;26.10;;;;;;;;;;5062231;28;20025;-59
2023/11/14 11:46:35;;;;;;;27.63;25.73;;;;;;;;;;5066747;28;20584;-59
2023/11/14 11:49:10;;;;;;;25.08;23.50;;;;;;;;;;5062227;28;20033;-60
2023/11/14 11:51:48;;;;;;;26.00;24.00;;;;;;;;;;5064156;28;20029;-63
2023/11/14 11:54:29;;;;;;;27.20;25.70;;;;;;;;;;5063430;28;20047;-63
2023/11/14 11:57:03;;;;;;;27.05;25.08;;;;;;;;;;5058635;28;20103;-63
2023/11/14 11:59:28;;;;;;;28.00;26.48;;;;;;;;;;5063562;28;20068;-62
2023/11/14 12:01:54;;;;;;;26.75;25.13;;;;;;;;;;5061488;28;20060;-63
2023/11/14 12:04:21;;;;;;;24.10;22.80;;;;;;;;;;5064896;28;20066;-63
2023/11/14 12:06:47;;;;;;;24.65;23.25;;;;;;;;;;5061342;28;20043;-63
2023/11/14 12:09:12;;;;;;;26.17;24.77;;;;;;;;;;5059239;28;20033;-63
2023/11/14 12:11:40;;;;;;;30.40;28.70;;;;;;;;;;5056169;28;20059;-59
2023/11/14 12:14:06;;;;;;;26.20;24.80;;;;;;;;;;5057687;28;20031;-63
2023/11/14 12:16:36;;;;;;;27.55;26.13;;;;;;;;;;5058507;28;20028;-64
2023/11/14 12:19:01;;;;;;;27.88;26.38;;;;;;;;;;5055393;28;20039;-59
2023/11/14 12:21:26;;;;;;;27.40;25.23;;;;;;;;;;5060698;28;20025;-59
2023/11/14 12:23:53;;;;;;;24.15;22.85;;;;;;;;;;5058809;28;20107;-59
2023/11/14 12:26:18;;;;;;;22.80;21.52;;;;;;;;;;5061961;28;20411;-59
2023/11/14 12:28:44;;;;;;;23.33;21.83;;;;;;;;;;5056978;28;20040;-59
2023/11/14 12:31:12;;;;;;;25.17;23.67;;;;;;;;;;5059407;28;20067;-59
2023/11/14 12:33:45;;;;;;;24.90;23.55;;;;;;;;;;5059799;28;20119;-60
2023/11/14 12:36:20;;;;;;;24.40;22.60;;;;;;;;;;5061186;28;20451;-59
2023/11/14 12:38:46;;;;;;;22.73;21.42;;;;;;;;;;5060874;28;20043;-59
2023/11/14 12:41:24;;;;;;;24.73;23.42;;;;;;;;;;5062431;28;20102;-60
2023/11/14 12:43:51;;;;;;;22.30;21.10;;;;;;;;;;5061670;28;20059;-60
2023/11/14 12:46:27;;;;;;;27.02;25.52;;;;;;;;;;5056453;28;20125;-60
2023/11/14 12:49:14;;;;;;;25.77;24.40;;;;;;;;;;5053596;28;20324;-60
2023/11/14 12:52:02;;;;;;;25.83;24.42;;;;;;;;;;5062320;28;20407;-59
2023/11/14 12:54:28;;;;;;;29.27;27.58;;;;;;;;;;5060598;28;20032;-59
2023/11/14 12:56:54;;;;;;;28.30;26.77;;;;;;;;;;5054826;28;20040;-59
2023/11/14 12:59:20;;;;;;;24.85;23.52;;;;;;;;;;5059907;28;20036;-59
2023/11/14 13:01:46;;;;;;;25.80;23.30;;;;;;;;;;5058925;28;20047;-59
2023/11/14 13:04:12;;;;;;;23.98;21.98;;;;;;;;;;5061107;28;20037;-58
2023/11/14 13:06:40;;;;;;;22.77;21.48;;;;;;;;;;5058590;28;20036;-59
2023/11/14 13:09:07;;;;;;;21.73;20.52;;;;;;;;;;5057897;28;20029;-59
2023/11/14 13:11:36;;;;;;;23.25;21.95;;;;;;;;;;5062290;28;20035;-59
2023/11/14 13:14:02;;;;;;;22.42;21.13;;;;;;;;;;5063174;28;20111;-59
2023/11/14 13:16:29;;;;;;;23.50;22.25;;;;;;;;;;5059301;28;20138;-59
2023/11/14 13:18:58;;;;;;;22.60;21.35;;;;;;;;;;5058492;28;20040;-63
2023/11/14 13:21:24;;;;;;;22.02;20.83;;;;;;;;;;5060663;28;20052;-63
2023/11/14 13:23:50;;;;;;;24.15;22.40;;;;;;;;;;5059405;28;20063;-59
2023/11/14 13:26:16;;;;;;;20.55;19.45;;;;;;;;;;5058275;28;20285;-63
2023/11/14 13:28:41;;;;;;;21.90;20.70;;;;;;;;;;5057584;28;20033;-59
2023/11/14 13:31:07;;;;;;;20.55;19.45;;;;;;;;;;5056705;28;20043;-59
2023/11/14 13:33:34;;;;;;;22.10;20.90;;;;;;;;;;5060528;28;20068;-60
2023/11/14 13:36:00;;;;;;;22.88;21.45;;;;;;;;;;5065313;28;20036;-59
2023/11/14 13:38:26;;;;;;;22.75;21.55;;;;;;;;;;5059181;28;21142;-59
2023/11/14 13:40:53;;;;;;;23.92;22.52;;;;;;;;;;5060127;28;20061;-59
2023/11/14 13:43:21;;;;;;;23.92;22.52;;;;;;;;;;5060111;28;20055;-59
2023/11/14 13:45:48;;;;;;;22.20;21.00;;;;;;;;;;5060204;28;20035;-62
2023/11/14 13:48:14;;;;;;;23.20;21.92;;;;;;;;;;5062261;28;20493;-59
2023/11/14 13:50:40;;;;;;;22.45;21.25;;;;;;;;;;5058308;28;20035;-63
2023/11/14 13:53:05;;;;;;;23.42;22.08;;;;;;;;;;5058686;28;20040;-59
2023/11/14 13:55:31;;;;;;;24.08;22.77;;;;;;;;;;5056230;28;20121;-62
2023/11/14 13:57:56;;;;;;;22.88;21.65;;;;;;;;;;5060152;28;20040;-59
2023/11/14 14:00:26;;;;;;;24.35;23.05;;;;;;;;;;5059386;28;20381;-59
2023/11/14 14:02:52;;;;;;;23.77;22.20;;;;;;;;;;5061432;28;20037;-63
2023/11/14 14:05:18;;;;;;;21.90;20.73;;;;;;;;;;5065165;28;20033;-63
2023/11/14 14:07:45;;;;;;;22.80;21.60;;;;;;;;;;5061155;28;20025;-59
2023/11/14 14:10:13;;;;;;;22.48;21.17;;;;;;;;;;5055429;28;20033;-59
2023/11/14 14:12:39;;;;;;;21.77;20.58;;;;;;;;;;5060595;28;20570;-59
2023/11/14 14:15:09;;;;;;;21.42;20.25;;;;;;;;;;5055864;28;20036;-63
2023/11/14 14:17:35;;;;;;;23.08;21.73;;;;;;;;;;5060612;28;20062;-63
2023/11/14 14:20:00;;;;;;;23.52;22.27;;;;;;;;;;5059143;28;20056;-59
2023/11/14 14:22:27;;;;;;;23.13;21.63;;;;;;;;;;5058846;28;20032;-59
2023/11/14 14:24:52;;;;;;;23.15;21.85;;;;;;;;;;5059772;28;20119;-63
2023/11/14 14:27:18;;;;;;;26.85;25.45;;;;;;;;;;5055362;28;20108;-63
2023/11/14 14:29:48;;;;;;;22.55;21.35;;;;;;;;;;5061804;28;20450;-59
2023/11/14 14:32:14;;;;;;;21.83;20.63;;;;;;;;;;5060568;28;20133;-63
2023/11/14 14:34:39;;;;;;;22.90;21.70;;;;;;;;;;5059350;28;20025;-59
2023/11/14 14:37:06;;;;;;;24.35;23.05;;;;;;;;;;5059770;28;20736;-59
2023/11/14 14:39:31;;;;;;;21.00;19.90;;;;;;;;;;5054376;28;20064;-59
2023/11/14 14:41:56;;;;;;;22.33;21.13;;;;;;;;;;5058920;28;20107;-63
2023/11/14 14:44:24;;;;;;;21.58;20.38;;;;;;;;;;5060528;28;20040;-63
2023/11/14 14:46:49;;;;;;;20.85;19.75;;;;;;;;;;5059623;28;20043;-62
2023/11/14 14:49:14;;;;;;;21.77;20.58;;;;;;;;;;5058382;28;20108;-59
2023/11/14 14:51:40;;;;;;;22.30;21.08;;;;;;;;;;5063516;28;20123;-59
2023/11/14 14:54:05;;;;;;;20.98;19.85;;;;;;;;;;5060522;28;20501;-62
2023/11/14 14:56:31;;;;;;;21.65;20.45;;;;;;;;;;5061122;28;20043;-59
2023/11/14 14:58:56;;;;;;;21.15;20.02;;;;;;;;;;5057837;28;20032;-59
2023/11/14 15:01:22;;;;;;;20.60;19.50;;;;;;;;;;5058365;28;20115;-62
2023/11/14 15:03:48;;;;;;;22.30;21.10;;;;;;;;;;5061997;28;20106;-59
2023/11/14 15:06:13;;;;;;;23.50;22.25;;;;;;;;;;5058336;28;20116;-59
2023/11/14 15:08:39;;;;;;;21.75;20.55;;;;;;;;;;5054052;28;20044;-60
2023/11/14 15:11:05;;;;;;;21.08;19.98;;;;;;;;;;5057358;28;20046;-59
2023/11/14 15:13:31;;;;;;;23.67;22.38;;;;;;;;;;5058907;28;20119;-59
2023/11/14 15:15:56;;;;;;;24.10;22.70;;;;;;;;;;5056483;28;20407;-59
2023/11/14 15:18:21;;;;;;;23.48;22.25;;;;;;;;;;5058970;28;20134;-63
2023/11/14 15:20:49;;;;;;;23.27;22.08;;;;;;;;;;5057754;28;20028;-59
2023/11/14 15:23:17;;;;;;;22.27;21.08;;;;;;;;;;5056146;28;20036;-63
2023/11/14 15:25:44;;;;;;;21.90;20.63;;;;;;;;;;5057701;28;20047;-63
2023/11/14 15:28:10;;;;;;;21.25;20.08;;;;;;;;;;5059839;28;20044;-63
2023/11/14 15:30:36;;;;;;;21.52;20.33;;;;;;;;;;5059994;28;20027;-63
2023/11/14 15:33:02;;;;;;;21.90;20.70;;;;;;;;;;5065566;28;20059;-63
2023/11/14 15:35:27;;;;;;;23.73;21.90;;;;;;;;;;5065575;28;20625;-60
2023/11/14 15:37:53;;;;;;;22.48;21.17;;;;;;;;;;5060672;28;20440;-59
2023/11/14 15:40:18;;;;;;;22.67;21.38;;;;;;;;;;5059858;28;20043;-63
2023/11/14 15:42:44;;;;;;;24.10;22.80;;;;;;;;;;5062481;28;20038;-63
2023/11/14 15:45:10;;;;;;;25.33;23.85;;;;;;;;;;5061498;28;20048;-64
2023/11/14 15:47:35;;;;;;;23.35;22.15;;;;;;;;;;5062958;28;20034;-63
2023/11/14 15:50:01;;;;;;;24.83;23.52;;;;;;;;;;5062230;28;20032;-64
2023/11/14 15:52:27;;;;;;;25.75;24.25;;;;;;;;;;5061652;28;20055;-64
2023/11/14 15:54:53;;;;;;;26.25;24.85;;;;;;;;;;5061202;28;20614;-64
2023/11/14 15:57:19;;;;;;;25.25;23.73;;;;;;;;;;5063147;28;20169;-60
2023/11/14 15:59:44;;;;;;;25.17;23.88;;;;;;;;;;5064468;28;20116;-60
2023/11/14 16:02:10;;;;;;;28.65;27.05;;;;;;;;;;5057545;28;20041;-60
2023/11/14 16:04:36;;;;;;;26.38;24.98;;;;;;;;;;5061825;28;20037;-60
2023/11/14 16:07:02;;;;;;;26.58;25.17;;;;;;;;;;5059512;28;20037;-60
2023/11/14 16:09:28;;;;;;;23.90;22.63;;;;;;;;;;5056303;28;20078;-60
2023/11/14 16:11:55;;;;;;;23.88;22.58;;;;;;;;;;5062613;28;20023;-63
2023/11/14 16:14:20;;;;;;;24.15;22.85;;;;;;;;;;5060348;28;20189;-63
2023/11/14 16:16:45;;;;;;;22.88;21.67;;;;;;;;;;5061332;28;20115;-59
2023/11/14 16:19:11;;;;;;;25.20;23.88;;;;;;;;;;5063569;28;20043;-60
2023/11/14 16:21:36;;;;;;;28.00;26.52;;;;;;;;;;5062181;28;20118;-64
2023/11/14 16:24:04;;;;;;;29.52;28.00;;;;;;;;;;5065786;28;20033;-62
2023/11/14 16:26:30;;;;;;;29.25;27.70;;;;;;;;;;5059543;28;20033;-61
2023/11/14 16:28:56;;;;;;;33.42;31.60;;;;;;;;;;5060164;28;20103;-62
2023/11/14 16:31:21;;;;;;;31.40;29.77;;;;;;;;;;5058648;28;20028;-66
2023/11/14 16:33:47;;;;;;;35.30;33.50;;;;;;;;;;5062038;28;20036;-66
2023/11/14 16:36:12;;;;;;;40.55;38.45;;;;;;;;;;5055667;28;20654;-66
2023/11/14 16:38:37;;;;;;;44.28;41.97;;;;;;;;;;5060624;28;20037;-62
2023/11/14 16:41:03;;;;;;;43.60;41.40;;;;;;;;;;5066599;28;20033;-65
2023/11/14 16:43:29;;;;;;;45.28;42.78;;;;;;;;;;5059623;28;21083;-66
2023/11/14 16:45:55;;;;;;;45.22;42.92;;;;;;;;;;5054824;28;20121;-66
2023/11/14 16:48:21;;;;;;;48.00;45.60;;;;;;;;;;5058236;28;20036;-65
2023/11/14 16:50:46;;;;;;;49.38;46.83;;;;;;;;;;5059851;28;20052;-62
2023/11/14 16:53:11;;;;;;;47.88;45.45;;;;;;;;;;5057763;28;20107;-61
2023/11/14 16:55:41;;;;;;;51.58;48.97;;;;;;;;;;5060561;28;20700;-62
2023/11/14 16:58:06;;;;;;;52.42;49.72;;;;;;;;;;5059596;28;20049;-62
2023/11/14 17:00:32;;;;;;;53.97;51.28;;;;;;;;;;5057964;28;20040;-65
2023/11/14 17:02:57;;;;;;;51.83;49.20;;;;;;;;;;5062271;28;20020;-61
2023/11/14 17:05:23;;;;;;;54.67;51.92;;;;;;;;;;5061356;28;20044;-63
2023/11/14 17:07:48;;;;;;;53.42;50.72;;;;;;;;;;5059299;28;20020;-65
2023/11/14 17:10:14;;;;;;;50.70;48.10;;;;;;;;;;5057609;28;20135;-66
2023/11/14 17:12:39;;;;;;;50.17;47.63;;;;;;;;;;5058074;28;20564;-65
2023/11/14 17:15:06;;;;;;;51.80;49.10;;;;;;;;;;5056124;28;20024;-66
2023/11/14 17:17:31;;;;;;;50.33;47.78;;;;;;;;;;5058439;28;20036;-68
2023/11/14 17:19:57;;;;;;;51.17;48.55;;;;;;;;;;5061839;28;20046;-66
2023/11/14 17:22:22;;;;;;;48.65;46.17;;;;;;;;;;5056000;28;20071;-64
2023/11/14 17:24:49;;;;;;;46.60;44.10;;;;;;;;;;5057438;28;20088;-63
2023/11/14 17:27:18;;;;;;;45.80;43.45;;;;;;;;;;5056302;28;20041;-61
2023/11/14 17:29:43;;;;;;;45.45;42.97;;;;;;;;;;5055643;28;20052;-65
2023/11/14 17:32:08;;;;;;;45.53;43.22;;;;;;;;;;5052148;28;20142;-63
2023/11/14 17:34:34;;;;;;;44.65;42.33;;;;;;;;;;5058660;28;20032;-62
2023/11/14 17:36:59;;;;;;;44.30;42.08;;;;;;;;;;5059498;28;20048;-63
2023/11/14 17:39:24;;;;;;;45.25;42.95;;;;;;;;;;5057995;28;20093;-65
2023/11/14 17:41:50;;;;;;;46.17;43.83;;;;;;;;;;5059684;28;20528;-65
2023/11/14 17:44:21;;;;;;;45.53;43.22;;;;;;;;;;5052915;28;20052;-65
2023/11/14 17:46:49;;;;;;;44.75;42.45;;;;;;;;;;5057053;28;20059;-63
2023/11/14 17:49:15;;;;;;;42.63;40.45;;;;;;;;;;5056970;28;20111;-64
2023/11/14 17:51:43;;;;;;;42.47;40.30;;;;;;;;;;5056493;28;20115;-65
2023/11/14 17:54:09;;;;;;;42.17;40.03;;;;;;;;;;5040979;28;20449;-64
2023/11/14 17:56:34;;;;;;;43.33;41.13;;;;;;;;;;5059297;28;20068;-65
2023/11/14 17:59:00;;;;;;;41.55;39.42;;;;;;;;;;5063522;28;20564;-61
2023/11/14 18:01:26;;;;;;;41.13;39.03;;;;;;;;;;5055586;28;20344;-64
2023/11/14 18:03:51;;;;;;;41.25;39.15;;;;;;;;;;5062799;28;20373;-60
2023/11/14 18:06:17;;;;;;;39.65;37.63;;;;;;;;;;5059072;28;20048;-59
2023/11/14 18:08:42;;;;;;;43.33;41.13;;;;;;;;;;5053530;28;20539;-61
2023/11/14 18:11:07;;;;;;;42.80;40.53;;;;;;;;;;5058754;28;20027;-61
2023/11/14 18:13:33;;;;;;;44.47;42.20;;;;;;;;;;5059320;28;20051;-61
2023/11/14 18:15:58;;;;;;;38.75;36.78;;;;;;;;;;5056668;28;20038;-61
2023/11/14 18:18:24;;;;;;;39.22;37.20;;;;;;;;;;5054951;28;20362;-65
2023/11/14 18:20:49;;;;;;;41.03;38.92;;;;;;;;;;5058166;28;20451;-61
2023/11/14 18:23:14;;;;;;;40.20;38.15;;;;;;;;;;5051024;28;20492;-60
2023/11/14 18:25:40;;;;;;;44.08;41.47;;;;;;;;;;5054653;28;20032;-61
2023/11/14 18:28:05;;;;;;;41.63;39.47;;;;;;;;;;5056614;28;20036;-62
2023/11/14 18:30:31;;;;;;;44.25;42.00;;;;;;;;;;5056327;28;20035;-61
2023/11/14 18:32:56;;;;;;;43.92;41.70;;;;;;;;;;5060166;28;20110;-62
2023/11/14 18:35:24;;;;;;;44.13;41.85;;;;;;;;;;5057568;28;20033;-62
2023/11/14 18:37:54;;;;;;;39.78;37.75;;;;;;;;;;5053578;28;20028;-62
2023/11/14 18:40:20;;;;;;;38.45;36.30;;;;;;;;;;5057674;28;20561;-62
2023/11/14 18:42:46;;;;;;;38.83;36.85;;;;;;;;;;5057258;28;20115;-62
2023/11/14 18:45:11;;;;;;;36.88;34.97;;;;;;;;;;5058363;28;20036;-62
2023/11/14 18:47:38;;;;;;;36.15;34.30;;;;;;;;;;5051897;28;20066;-62
2023/11/14 18:50:04;;;;;;;39.85;36.85;;;;;;;;;;5056670;28;20616;-62
2023/11/14 18:52:30;;;;;;;38.47;36.45;;;;;;;;;;5052384;28;20090;-62
2023/11/14 18:54:59;;;;;;;36.50;34.63;;;;;;;;;;5058509;28;20029;-67
2023/11/14 18:57:26;;;;;;;39.22;37.15;;;;;;;;;;5056023;28;20032;-62
2023/11/14 18:59:52;;;;;;;40.72;38.03;;;;;;;;;;5057201;28;20123;-62
2023/11/14 19:02:17;;;;;;;40.17;38.08;;;;;;;;;;5055966;28;20098;-66
2023/11/14 19:04:43;;;;;;;38.17;36.20;;;;;;;;;;5061077;28;20138;-65
2023/11/14 19:07:08;;;;;;;38.33;36.35;;;;;;;;;;5061265;28;20032;-66
2023/11/14 19:09:34;;;;;;;39.83;37.67;;;;;;;;;;5062854;28;20048;-61
2023/11/14 19:12:02;;;;;;;36.88;34.97;;;;;;;;;;5061413;28;20079;-62
2023/11/14 19:14:28;;;;;;;38.50;36.25;;;;;;;;;;5062926;28;20098;-61
2023/11/14 19:16:54;;;;;;;37.90;35.92;;;;;;;;;;5062348;28;20105;-67
2023/11/14 19:19:19;;;;;;;34.50;32.70;;;;;;;;;;5063404;28;20043;-67
2023/11/14 19:21:45;;;;;;;31.02;29.38;;;;;;;;;;5065739;28;20056;-62
2023/11/14 19:24:11;;;;;;;31.92;30.15;;;;;;;;;;5061902;28;20044;-62
2023/11/14 19:26:37;;;;;;;31.77;30.10;;;;;;;;;;5065602;28;20528;-61
2023/11/14 19:29:03;;;;;;;31.33;29.67;;;;;;;;;;5059679;28;20131;-61
2023/11/14 19:31:28;;;;;;;32.05;30.30;;;;;;;;;;5060654;28;20125;-61
2023/11/14 19:33:54;;;;;;;28.35;26.88;;;;;;;;;;5061022;28;20033;-62
2023/11/14 19:36:19;;;;;;;29.20;27.67;;;;;;;;;;5059473;28;20031;-62
2023/11/14 19:38:45;;;;;;;29.15;27.63;;;;;;;;;;5063176;28;20032;-62
2023/11/14 19:41:12;;;;;;;28.63;27.00;;;;;;;;;;5060526;28;21381;-62
2023/11/14 19:43:38;;;;;;;29.52;27.85;;;;;;;;;;5056355;28;20024;-61
2023/11/14 19:46:04;;;;;;;26.98;25.52;;;;;;;;;;5059207;28;20102;-60
2023/11/14 19:48:29;;;;;;;29.17;27.65;;;;;;;;;;5058719;28;20033;-60
2023/11/14 19:50:55;;;;;;;32.25;30.45;;;;;;;;;;5058873;28;20025;-60
2023/11/14 19:53:20;;;;;;;28.25;26.77;;;;;;;;;;5060386;28;20032;-62
2023/11/14 19:55:46;;;;;;;30.25;28.63;;;;;;;;;;5058269;28;20040;-61
2023/11/14 19:58:11;;;;;;;28.38;26.75;;;;;;;;;;5062430;28;20037;-61
2023/11/14 20:00:36;;;;;;;29.02;27.50;;;;;;;;;;5059196;28;20075;-62
2023/11/14 20:03:03;;;;;;;26.98;25.35;;;;;;;;;;5063846;28;20422;-67
2023/11/14 20:05:29;;;;;;;27.80;26.35;;;;;;;;;;5065611;28;20081;-66
2023/11/14 20:07:55;;;;;;;27.25;25.83;;;;;;;;;;5057861;28;20032;-67
2023/11/14 20:10:20;;;;;;;27.45;26.02;;;;;;;;;;5058695;28;20044;-66
2023/11/14 20:12:46;;;;;;;27.45;25.90;;;;;;;;;;5059598;28;20742;-65
2023/11/14 20:15:11;;;;;;;25.52;24.17;;;;;;;;;;5056300;28;20041;-65
2023/11/14 20:17:37;;;;;;;25.67;24.33;;;;;;;;;;5060077;28;20661;-65
2023/11/14 20:20:04;;;;;;;26.05;24.55;;;;;;;;;;5060230;28;20044;-66
2023/11/14 20:22:31;;;;;;;26.10;24.70;;;;;;;;;;5058328;28;20424;-65
2023/11/14 20:24:58;;;;;;;25.90;23.95;;;;;;;;;;5060510;28;20634;-69
2023/11/14 20:27:24;;;;;;;23.73;22.45;;;;;;;;;;5058630;28;20028;-66
2023/11/14 20:29:49;;;;;;;22.42;21.23;;;;;;;;;;5062013;28;20528;-68
2023/11/14 20:32:14;;;;;;;23.17;21.88;;;;;;;;;;5058490;28;20017;-67
2023/11/14 20:34:40;;;;;;;23.77;22.48;;;;;;;;;;5060393;28;20035;-65
2023/11/14 20:37:06;;;;;;;22.90;21.70;;;;;;;;;;5060143;28;20790;-65